Time;durP1;ratioP1;P1;durP2;ratioP2;P2;SDS_P1;SDS_P2;PMS_P1;PMS_P2;Temp;Humidity;BMP_temperature;BMP_pressure;BME280_temperature;BME280_humidity;BME280_pressure;Samples;Min_cycle;Max_cycle;Signal;HPM_P1;HPM_P2
2021/07/23 00:01:08;;;;;;;10.25;5.80;;;16.50;99.90;;;;;;5116456;28;20130;-87
2021/07/23 00:03:36;;;;;;;11.30;5.97;;;16.60;99.90;;;;;;5150585;28;20040;-88
2021/07/23 00:06:03;;;;;;;9.40;6.18;;;16.60;99.90;;;;;;5133514;28;20036;-88
2021/07/23 00:08:30;;;;;;;8.18;6.32;;;16.60;99.90;;;;;;5151696;28;20114;-87
2021/07/23 00:10:57;;;;;;;10.30;6.95;;;16.60;99.90;;;;;;5149652;28;20043;-89
2021/07/23 00:13:24;;;;;;;9.63;6.80;;;16.60;99.90;;;;;;5150153;28;20032;-87
2021/07/23 00:15:51;;;;;;;12.20;7.43;;;16.60;99.90;;;;;;5150002;28;20114;-87
2021/07/23 00:18:18;;;;;;;9.05;6.70;;;16.60;99.90;;;;;;5133614;28;20126;-88
2021/07/23 00:20:45;;;;;;;10.48;7.43;;;16.60;99.90;;;;;;5116577;28;20502;-88
2021/07/23 00:23:12;;;;;;;12.25;8.07;;;16.60;99.90;;;;;;5133225;28;20118;-87
2021/07/23 00:25:38;;;;;;;10.77;8.23;;;16.60;99.90;;;;;;5133117;28;20039;-89
2021/07/23 00:28:05;;;;;;;10.05;8.35;;;16.70;99.90;;;;;;5132814;28;20155;-88
2021/07/23 00:30:32;;;;;;;11.60;8.50;;;16.70;99.90;;;;;;5133282;28;20119;-88
2021/07/23 00:33:03;;;;;;;12.02;9.07;;;16.70;99.90;;;;;;5132909;28;20475;-88
2021/07/23 00:35:29;;;;;;;10.07;7.53;;;16.60;99.90;;;;;;5149811;28;20032;-86
2021/07/23 00:37:56;;;;;;;9.73;6.53;;;16.70;99.90;;;;;;5149444;28;20479;-87
2021/07/23 00:40:24;;;;;;;9.60;6.50;;;16.70;99.90;;;;;;5149330;28;20483;-88
2021/07/23 00:42:51;;;;;;;9.38;6.53;;;16.70;99.90;;;;;;5132910;28;20044;-87
2021/07/23 00:45:19;;;;;;;9.27;6.32;;;16.80;99.90;;;;;;5150423;28;20039;-88
2021/07/23 00:47:49;;;;;;;9.68;6.45;;;16.80;99.90;;;;;;5132790;28;20035;-87
2021/07/23 00:50:16;;;;;;;9.63;6.43;;;16.80;99.90;;;;;;5149373;28;20078;-89
2021/07/23 00:52:43;;;;;;;9.38;6.60;;;16.70;99.90;;;;;;5149417;28;20475;-87
2021/07/23 00:55:12;;;;;;;8.80;6.55;;;16.80;99.90;;;;;;5132179;28;20047;-88
2021/07/23 00:57:41;;;;;;;9.13;5.95;;;16.80;99.90;;;;;;5149996;28;20035;-88
2021/07/23 01:00:08;;;;;;;10.40;7.30;;;16.80;99.90;;;;;;5149398;28;20538;-87
2021/07/23 01:02:35;;;;;;;10.93;6.38;;;16.80;99.90;;;;;;5133163;28;20043;-89
2021/07/23 01:05:03;;;;;;;10.15;6.55;;;16.80;99.90;;;;;;5149319;28;20395;-87
2021/07/23 01:07:31;;;;;;;9.48;6.13;;;16.70;99.90;;;;;;5149945;28;20038;-88
2021/07/23 01:10:01;;;;;;;9.95;6.35;;;16.70;99.90;;;;;;5132132;28;20464;-88
2021/07/23 01:12:29;;;;;;;12.35;6.10;;;16.70;99.90;;;;;;5149319;28;20039;-87
2021/07/23 01:14:59;;;;;;;9.30;6.53;;;16.70;99.90;;;;;;5150346;28;20047;-86
2021/07/23 01:17:27;;;;;;;12.02;6.13;;;16.70;99.90;;;;;;5132617;28;20043;-89
2021/07/23 01:20:06;;;;;;;8.50;6.18;;;16.70;99.90;;;;;;5132240;28;20028;-87
2021/07/23 01:22:34;;;;;;;10.13;7.00;;;16.70;99.90;;;;;;5150174;28;20541;-87
2021/07/23 01:25:05;;;;;;;11.55;6.45;;;16.60;99.90;;;;;;5131787;28;20027;-86
2021/07/23 01:27:35;;;;;;;9.13;6.05;;;16.60;99.90;;;;;;5131798;28;20505;-87
2021/07/23 01:30:10;;;;;;;8.35;6.55;;;16.60;99.90;;;;;;5131910;28;20084;-86
2021/07/23 01:32:37;;;;;;;9.90;7.07;;;16.70;99.90;;;;;;5131669;28;20039;-86
2021/07/23 01:35:06;;;;;;;12.13;6.70;;;16.70;99.90;;;;;;5149429;28;20035;-87
2021/07/23 01:37:33;;;;;;;9.40;6.47;;;16.70;99.90;;;;;;5131778;28;20130;-87
2021/07/23 01:40:01;;;;;;;9.63;6.50;;;16.70;99.90;;;;;;5148484;28;20043;-86
2021/07/23 01:42:29;;;;;;;9.43;6.22;;;16.60;99.90;;;;;;5148783;28;20068;-87
2021/07/23 01:44:57;;;;;;;10.25;6.82;;;16.60;99.90;;;;;;5131657;28;20032;-87
2021/07/23 01:47:23;;;;;;;11.30;6.72;;;16.60;99.90;;;;;;5147616;28;20519;-87
2021/07/23 01:49:50;;;;;;;12.20;7.35;;;16.70;99.90;;;;;;5114963;28;20040;-87
2021/07/23 01:52:17;;;;;;;10.82;7.75;;;16.60;99.90;;;;;;5130958;28;20114;-87
2021/07/23 01:54:44;;;;;;;13.02;7.15;;;16.70;99.90;;;;;;5148764;28;20470;-87
2021/07/23 01:57:11;;;;;;;9.52;7.13;;;16.60;99.90;;;;;;5131324;28;20035;-86
2021/07/23 01:59:38;;;;;;;10.65;8.15;;;16.60;99.90;;;;;;5131866;28;20112;-88
2021/07/23 02:02:05;;;;;;;10.30;7.70;;;16.60;99.90;;;;;;5131332;28;20071;-87
2021/07/23 02:04:33;;;;;;;12.60;8.05;;;16.60;99.90;;;;;;5114839;28;20059;-86
2021/07/23 02:07:00;;;;;;;10.80;7.80;;;16.60;99.90;;;;;;5148314;28;20036;-86
2021/07/23 02:09:27;;;;;;;10.43;7.55;;;16.60;99.90;;;;;;5130824;28;20039;-86
2021/07/23 02:11:54;;;;;;;11.68;7.55;;;16.60;99.90;;;;;;5131357;28;20376;-86
2021/07/23 02:14:21;;;;;;;11.02;7.50;;;16.60;99.90;;;;;;5147963;28;20047;-87
2021/07/23 02:16:48;;;;;;;10.60;7.78;;;16.60;99.90;;;;;;5131656;28;20085;-87
2021/07/23 02:19:15;;;;;;;13.10;7.15;;;16.60;99.90;;;;;;5147785;28;20039;-86
2021/07/23 02:21:42;;;;;;;10.57;7.65;;;16.60;99.90;;;;;;5147885;28;20031;-87
2021/07/23 02:24:09;;;;;;;11.88;7.57;;;16.60;99.90;;;;;;5130728;28;20034;-87
2021/07/23 02:26:35;;;;;;;10.65;7.22;;;16.60;99.90;;;;;;5130994;28;20035;-87
2021/07/23 02:29:02;;;;;;;11.93;7.15;;;16.60;99.90;;;;;;5131457;28;20042;-87
2021/07/23 02:31:29;;;;;;;10.88;6.65;;;16.60;99.90;;;;;;5147464;28;20110;-87
2021/07/23 02:33:56;;;;;;;10.68;7.43;;;16.60;99.90;;;;;;5131140;28;20407;-87
2021/07/23 02:36:23;;;;;;;12.05;7.47;;;16.60;99.90;;;;;;5130568;28;20035;-87
2021/07/23 02:38:50;;;;;;;15.23;7.43;;;16.60;99.90;;;;;;5130846;28;20079;-87
2021/07/23 02:41:16;;;;;;;10.40;6.65;;;16.60;99.90;;;;;;5130249;28;20092;-86
2021/07/23 02:43:47;;;;;;;9.98;6.40;;;16.60;99.90;;;;;;5130756;28;20377;-86
2021/07/23 02:46:14;;;;;;;11.40;6.72;;;16.60;99.90;;;;;;5131048;28;20118;-86
2021/07/23 02:48:41;;;;;;;10.20;7.00;;;16.60;99.90;;;;;;5147576;28;20067;-86
2021/07/23 02:51:09;;;;;;;10.98;6.50;;;16.60;99.90;;;;;;5130064;28;20498;-88
2021/07/23 02:53:36;;;;;;;9.80;6.20;;;16.60;99.90;;;;;;5131359;28;20099;-87
2021/07/23 02:56:03;;;;;;;8.90;6.25;;;16.60;99.90;;;;;;5130679;28;20044;-87
2021/07/23 02:58:30;;;;;;;10.05;6.80;;;16.60;99.90;;;;;;5147242;28;20047;-87
2021/07/23 03:00:57;;;;;;;11.43;6.20;;;16.60;99.90;;;;;;5130942;28;20040;-88
2021/07/23 03:03:23;;;;;;;12.98;6.35;;;16.60;99.90;;;;;;5148948;28;20059;-87
2021/07/23 03:05:51;;;;;;;12.68;6.68;;;16.60;99.90;;;;;;5134498;28;20455;-86
2021/07/23 03:08:23;;;;;;;9.95;6.20;;;16.60;99.90;;;;;;5134511;28;20088;-88
2021/07/23 03:10:50;;;;;;;9.88;6.60;;;16.60;99.90;;;;;;5134734;28;20118;-86
2021/07/23 03:13:16;;;;;;;10.35;6.80;;;16.60;99.90;;;;;;5150750;28;20116;-86
2021/07/23 03:15:44;;;;;;;11.25;6.85;;;16.60;99.90;;;;;;5134317;28;20031;-86
2021/07/23 03:18:11;;;;;;;9.60;6.43;;;16.60;99.90;;;;;;5133742;28;20398;-86
2021/07/23 03:20:38;;;;;;;11.13;6.57;;;16.60;99.90;;;;;;5151212;28;20169;-86
2021/07/23 03:23:05;;;;;;;9.82;6.53;;;16.60;99.90;;;;;;5133976;28;20100;-86
2021/07/23 03:25:33;;;;;;;13.20;6.85;;;16.60;99.90;;;;;;5133708;28;20123;-86
2021/07/23 03:28:01;;;;;;;10.48;6.65;;;16.60;99.90;;;;;;5134210;28;20391;-87
2021/07/23 03:30:28;;;;;;;9.88;6.90;;;16.60;99.90;;;;;;5150849;28;20045;-88
2021/07/23 03:32:55;;;;;;;10.18;7.15;;;16.60;99.90;;;;;;5151409;28;20085;-87
2021/07/23 03:35:22;;;;;;;9.15;6.25;;;16.60;99.90;;;;;;5133852;28;20053;-87
2021/07/23 03:37:49;;;;;;;11.52;6.70;;;16.50;99.90;;;;;;5151046;28;20062;-88
2021/07/23 03:40:16;;;;;;;11.10;7.07;;;16.50;99.90;;;;;;5133752;28;20471;-87
2021/07/23 03:42:43;;;;;;;10.13;6.93;;;16.50;99.90;;;;;;5116746;28;20069;-86
2021/07/23 03:45:10;;;;;;;10.63;6.95;;;16.50;99.90;;;;;;5133221;28;20456;-85
2021/07/23 03:47:36;;;;;;;9.63;6.80;;;16.50;99.90;;;;;;5149287;28;20058;-86
2021/07/23 03:50:13;;;;;;;13.18;7.57;;;16.50;99.90;;;;;;5133403;28;20055;-85
2021/07/23 03:52:40;;;;;;;11.60;6.90;;;16.50;99.90;;;;;;5132798;28;20036;-87
2021/07/23 03:55:07;;;;;;;13.45;7.30;;;16.50;99.90;;;;;;5133163;28;20400;-87
2021/07/23 03:57:34;;;;;;;10.32;7.35;;;16.60;99.90;;;;;;5132764;28;20031;-87
2021/07/23 04:00:00;;;;;;;10.40;7.53;;;16.50;99.90;;;;;;5115987;28;20109;-86
2021/07/23 04:02:27;;;;;;;10.68;7.53;;;16.60;99.90;;;;;;5132611;28;20568;-85
2021/07/23 04:04:54;;;;;;;10.35;7.93;;;16.60;99.90;;;;;;5131905;28;20392;-86
2021/07/23 04:07:21;;;;;;;11.13;7.80;;;16.60;99.90;;;;;;5133001;28;20071;-86
2021/07/23 04:09:48;;;;;;;13.30;7.40;;;16.60;99.90;;;;;;5133264;28;20027;-86
2021/07/23 04:12:16;;;;;;;14.00;7.90;;;16.60;99.90;;;;;;5133033;28;20035;-86
2021/07/23 04:14:43;;;;;;;13.07;7.97;;;16.60;99.90;;;;;;5133112;28;20043;-86
2021/07/23 04:17:10;;;;;;;12.90;7.43;;;16.60;99.90;;;;;;5133078;28;20035;-86
2021/07/23 04:19:37;;;;;;;12.45;7.43;;;16.60;99.90;;;;;;5149687;28;20042;-87
2021/07/23 04:22:03;;;;;;;9.25;6.47;;;16.60;99.90;;;;;;5116934;28;20400;-87
2021/07/23 04:24:30;;;;;;;12.15;7.25;;;16.60;99.90;;;;;;5149933;28;20032;-86
2021/07/23 04:26:58;;;;;;;8.82;6.65;;;16.60;99.90;;;;;;5133215;28;20126;-87
2021/07/23 04:29:25;;;;;;;10.57;6.60;;;16.60;99.90;;;;;;5149627;28;20046;-87
2021/07/23 04:31:52;;;;;;;9.02;6.55;;;16.60;99.90;;;;;;5132432;28;20490;-87
2021/07/23 04:34:19;;;;;;;10.25;6.63;;;16.60;99.90;;;;;;5132581;28;20118;-86
2021/07/23 04:36:46;;;;;;;12.45;6.47;;;16.60;99.90;;;;;;5132923;28;20114;-87
2021/07/23 04:39:13;;;;;;;12.10;7.20;;;16.60;99.90;;;;;;5115856;28;20052;-86
2021/07/23 04:41:40;;;;;;;11.75;7.05;;;16.60;99.90;;;;;;5149206;28;20525;-85
2021/07/23 04:44:07;;;;;;;9.25;6.57;;;16.60;99.90;;;;;;5133083;28;20391;-86
2021/07/23 04:46:34;;;;;;;11.07;6.57;;;16.60;99.90;;;;;;5132347;28;20047;-87
2021/07/23 04:49:01;;;;;;;12.02;6.93;;;16.60;99.90;;;;;;5150016;28;20467;-87
2021/07/23 04:51:30;;;;;;;12.27;7.70;;;16.60;99.90;;;;;;5132239;28;20046;-86
2021/07/23 04:53:57;;;;;;;11.30;7.18;;;16.60;99.90;;;;;;5149289;28;20421;-87
2021/07/23 04:56:31;;;;;;;14.75;7.45;;;16.60;99.90;;;;;;5133451;28;20036;-86
2021/07/23 04:58:57;;;;;;;12.35;6.63;;;16.60;99.90;;;;;;5132799;28;20043;-87
2021/07/23 05:01:24;;;;;;;10.68;7.10;;;16.60;99.90;;;;;;5132397;28;20119;-88
2021/07/23 05:03:51;;;;;;;14.18;6.90;;;16.60;99.90;;;;;;5133151;28;20043;-87
2021/07/23 05:06:18;;;;;;;8.30;6.30;;;16.60;99.90;;;;;;5132483;28;20031;-87
2021/07/23 05:08:45;;;;;;;16.75;7.85;;;16.60;99.90;;;;;;5149008;28;20039;-88
2021/07/23 05:11:13;;;;;;;10.55;6.50;;;16.60;99.90;;;;;;5149375;28;20502;-87
2021/07/23 05:13:41;;;;;;;10.07;6.43;;;16.60;99.90;;;;;;5148320;28;20039;-87
2021/07/23 05:16:09;;;;;;;11.18;6.53;;;16.60;99.90;;;;;;5132434;28;20502;-86
2021/07/23 05:18:39;;;;;;;11.07;6.72;;;16.60;99.90;;;;;;5131801;28;20046;-86
2021/07/23 05:21:10;;;;;;;10.40;6.28;;;16.50;99.90;;;;;;5149337;28;20045;-87
2021/07/23 05:23:41;;;;;;;8.98;6.10;;;16.60;99.90;;;;;;5148887;28;20046;-87
2021/07/23 05:26:27;;;;;;;11.55;6.63;;;16.50;99.90;;;;;;5119965;28;20045;-86
2021/07/23 05:28:55;;;;;;;10.02;6.43;;;16.60;99.90;;;;;;5132038;28;20039;-87
2021/07/23 05:31:21;;;;;;;10.52;6.82;;;16.60;99.90;;;;;;5131771;28;20040;-86
2021/07/23 05:33:48;;;;;;;11.25;6.65;;;16.50;99.90;;;;;;5131704;28;20125;-87
2021/07/23 05:36:15;;;;;;;10.93;7.43;;;16.50;99.90;;;;;;5131578;28;20066;-87
2021/07/23 05:38:42;;;;;;;11.00;7.40;;;16.50;99.90;;;;;;5114407;28;20048;-86
2021/07/23 05:41:09;;;;;;;10.38;7.35;;;16.50;99.90;;;;;;5131463;28;20044;-86
2021/07/23 05:43:36;;;;;;;10.63;7.93;;;16.50;99.90;;;;;;5148151;28;20118;-86
2021/07/23 05:46:04;;;;;;;12.85;8.20;;;16.50;99.90;;;;;;5131505;28;20035;-86
2021/07/23 05:48:34;;;;;;;13.30;8.40;;;16.50;99.90;;;;;;5148295;28;20028;-86
2021/07/23 05:51:02;;;;;;;15.50;9.23;;;16.50;99.90;;;;;;5131897;28;20400;-87
2021/07/23 05:53:29;;;;;;;12.23;8.80;;;16.50;99.90;;;;;;5131063;28;20043;-86
2021/07/23 05:56:01;;;;;;;14.90;9.38;;;16.60;99.90;;;;;;5131490;28;20088;-86
2021/07/23 05:58:29;;;;;;;13.00;9.65;;;16.60;99.90;;;;;;5148114;28;20065;-85
2021/07/23 06:00:56;;;;;;;15.52;9.88;;;16.60;99.90;;;;;;5148485;28;20042;-86
2021/07/23 06:03:24;;;;;;;13.80;9.18;;;16.60;99.90;;;;;;5131252;28;20164;-86
2021/07/23 06:05:50;;;;;;;13.02;9.55;;;16.60;99.90;;;;;;5130304;28;20039;-86
2021/07/23 06:08:18;;;;;;;16.85;8.77;;;16.60;99.90;;;;;;5114044;28;20050;-86
2021/07/23 06:10:45;;;;;;;12.60;8.18;;;16.60;99.90;;;;;;5130714;28;20039;-86
2021/07/23 06:13:12;;;;;;;10.95;7.80;;;16.60;99.90;;;;;;5131275;28;20040;-87
2021/07/23 06:15:38;;;;;;;13.30;7.68;;;16.60;99.90;;;;;;5130717;28;20042;-86
2021/07/23 06:18:05;;;;;;;10.10;7.30;;;16.60;99.90;;;;;;5131642;28;20040;-87
2021/07/23 06:20:32;;;;;;;10.60;6.75;;;16.70;99.90;;;;;;5130908;28;20042;-86
2021/07/23 06:22:59;;;;;;;9.57;6.72;;;16.70;99.90;;;;;;5131368;28;20067;-87
2021/07/23 06:25:26;;;;;;;10.23;6.40;;;16.70;99.90;;;;;;5131209;28;20039;-87
2021/07/23 06:27:53;;;;;;;9.23;5.70;;;16.70;99.90;;;;;;5147524;28;20042;-87
2021/07/23 06:30:19;;;;;;;12.82;6.35;;;16.70;99.90;;;;;;5131285;28;20122;-86
2021/07/23 06:32:46;;;;;;;12.02;6.57;;;16.80;99.90;;;;;;5130505;28;20384;-86
2021/07/23 06:35:13;;;;;;;14.57;7.72;;;16.70;99.90;;;;;;5131524;28;20046;-87
2021/07/23 06:37:40;;;;;;;14.05;7.50;;;16.70;99.90;;;;;;5130878;28;20048;-87
2021/07/23 06:40:07;;;;;;;10.82;7.10;;;16.70;99.90;;;;;;5135513;28;20040;-87
2021/07/23 06:42:36;;;;;;;11.02;7.53;;;16.70;99.90;;;;;;5135437;28;20043;-86
2021/07/23 06:45:04;;;;;;;13.95;8.35;;;16.80;99.90;;;;;;5151809;28;20040;-86
2021/07/23 06:47:30;;;;;;;13.40;8.82;;;16.90;99.90;;;;;;5135060;28;20027;-87
2021/07/23 06:49:57;;;;;;;12.35;9.05;;;16.80;99.90;;;;;;5152128;28;20392;-87
2021/07/23 06:52:25;;;;;;;13.68;9.25;;;16.80;99.90;;;;;;5135159;28;20040;-86
2021/07/23 06:54:53;;;;;;;13.38;9.63;;;16.80;99.90;;;;;;5134687;28;20122;-87
2021/07/23 06:57:20;;;;;;;15.30;9.50;;;16.90;99.90;;;;;;5135415;28;20040;-87
2021/07/23 06:59:49;;;;;;;13.07;9.32;;;16.90;99.90;;;;;;5134397;28;20047;-86
2021/07/23 07:02:16;;;;;;;15.15;9.70;;;16.90;99.90;;;;;;5151817;28;20039;-86
2021/07/23 07:04:44;;;;;;;13.57;9.52;;;17.00;99.90;;;;;;5151521;28;20111;-87
2021/07/23 07:07:11;;;;;;;13.68;9.23;;;17.00;99.90;;;;;;5135158;28;20035;-86
2021/07/23 07:09:39;;;;;;;15.32;10.18;;;17.00;99.90;;;;;;5134205;28;20474;-86
2021/07/23 07:12:06;;;;;;;15.85;9.70;;;17.00;99.90;;;;;;5118396;28;20041;-86
2021/07/23 07:14:33;;;;;;;12.93;9.65;;;17.00;99.90;;;;;;5134516;28;20476;-86
2021/07/23 07:17:00;;;;;;;11.50;8.13;;;17.00;99.90;;;;;;5134656;28;20050;-86
2021/07/23 07:19:27;;;;;;;13.82;9.43;;;17.10;99.90;;;;;;5117476;28;20052;-86
2021/07/23 07:21:54;;;;;;;17.58;9.32;;;17.10;99.90;;;;;;5134150;28;20445;-87
2021/07/23 07:24:21;;;;;;;13.05;8.55;;;17.10;99.90;;;;;;5134471;28;20046;-86
2021/07/23 07:26:49;;;;;;;12.25;7.93;;;17.10;99.90;;;;;;5150502;28;20055;-86
2021/07/23 07:29:17;;;;;;;10.48;7.25;;;17.10;99.90;;;;;;5134014;28;20515;-86
2021/07/23 07:31:45;;;;;;;11.93;6.85;;;17.20;99.90;;;;;;5133924;28;20055;-86
2021/07/23 07:34:12;;;;;;;15.05;7.38;;;17.20;99.90;;;;;;5151058;28;20388;-87
2021/07/23 07:36:40;;;;;;;9.90;6.63;;;17.20;99.90;;;;;;5152127;28;20372;-86
2021/07/23 07:39:09;;;;;;;12.27;6.95;;;17.20;99.90;;;;;;5134170;28;20043;-86
2021/07/23 07:41:36;;;;;;;9.60;6.18;;;17.20;99.90;;;;;;5134816;28;20047;-87
2021/07/23 07:44:04;;;;;;;14.90;7.82;;;17.20;99.90;;;;;;5117441;28;20055;-86
2021/07/23 07:46:32;;;;;;;11.05;8.82;;;17.20;99.90;;;;;;5117715;28;20063;-86
2021/07/23 07:48:58;;;;;;;13.73;8.90;;;17.20;99.90;;;;;;5150279;28;20109;-87
2021/07/23 07:51:25;;;;;;;15.07;9.20;;;17.20;99.90;;;;;;5133936;28;20050;-86
2021/07/23 07:53:52;;;;;;;11.43;8.27;;;17.20;99.90;;;;;;5134006;28;20092;-86
2021/07/23 07:56:19;;;;;;;11.68;8.05;;;17.20;99.90;;;;;;5134188;28;20042;-86
2021/07/23 07:58:46;;;;;;;14.73;8.02;;;17.10;99.90;;;;;;5133513;28;20039;-86
2021/07/23 08:01:14;;;;;;;12.80;8.20;;;17.10;99.90;;;;;;5133925;28;20039;-87
2021/07/23 08:03:41;;;;;;;9.77;7.40;;;17.10;99.90;;;;;;5134109;28;20031;-86
2021/07/23 08:06:34;;;;;;;12.98;7.40;;;17.20;99.90;;;;;;5133936;28;20032;-87
2021/07/23 08:09:08;;;;;;;11.55;7.45;;;17.20;99.90;;;;;;5136814;28;20196;-86
2021/07/23 08:11:35;;;;;;;11.02;7.47;;;17.20;99.90;;;;;;5135326;28;20043;-87
2021/07/23 08:14:03;;;;;;;9.98;7.15;;;17.20;99.90;;;;;;5133287;28;20040;-87
2021/07/23 08:16:31;;;;;;;17.90;7.80;;;17.20;99.90;;;;;;5133688;28;20040;-87
2021/07/23 08:19:02;;;;;;;12.75;8.13;;;17.20;99.90;;;;;;5115888;28;20048;-87
2021/07/23 08:21:31;;;;;;;12.45;8.23;;;17.30;99.90;;;;;;5150336;28;20039;-87
2021/07/23 08:24:01;;;;;;;14.73;7.80;;;17.40;99.90;;;;;;5150273;28;20170;-86
2021/07/23 08:26:28;;;;;;;10.95;8.20;;;17.40;99.90;;;;;;5151018;28;20411;-86
2021/07/23 08:28:55;;;;;;;13.88;8.63;;;17.40;99.90;;;;;;5150353;28;20046;-86
2021/07/23 08:31:22;;;;;;;12.48;7.75;;;17.40;99.90;;;;;;5132995;28;20462;-87
2021/07/23 08:33:49;;;;;;;15.07;8.55;;;17.50;99.90;;;;;;5133095;28;20035;-86
2021/07/23 08:36:15;;;;;;;13.70;8.30;;;17.50;99.90;;;;;;5132837;28;20046;-86
2021/07/23 08:38:42;;;;;;;12.90;8.52;;;17.50;99.90;;;;;;5132775;28;20126;-87
2021/07/23 08:41:12;;;;;;;17.00;8.52;;;17.60;99.90;;;;;;5132788;28;20101;-87
2021/07/23 08:43:39;;;;;;;13.05;8.80;;;17.60;99.90;;;;;;5149886;28;20036;-86
2021/07/23 08:46:08;;;;;;;10.10;7.75;;;17.70;99.90;;;;;;5132472;28;20031;-86
2021/07/23 08:48:35;;;;;;;12.40;8.32;;;17.70;99.90;;;;;;5133213;28;20483;-87
2021/07/23 08:51:02;;;;;;;12.30;8.20;;;17.70;99.90;;;;;;5132096;28;20085;-86
2021/07/23 08:53:28;;;;;;;14.90;7.85;;;17.80;99.90;;;;;;5149770;28;20028;-88
2021/07/23 08:55:55;;;;;;;10.95;8.40;;;17.70;99.90;;;;;;5149556;28;20039;-86
2021/07/23 08:58:22;;;;;;;13.48;7.97;;;17.80;99.90;;;;;;5116121;28;20135;-87
2021/07/23 09:00:55;;;;;;;12.80;7.40;;;17.80;99.90;;;;;;5131673;28;20046;-86
2021/07/23 09:03:27;;;;;;;10.52;7.00;;;17.80;99.90;;;;;;5150945;28;20065;-86
2021/07/23 09:05:54;;;;;;;11.68;6.63;;;17.80;99.90;;;;;;5150037;28;20036;-86
2021/07/23 09:08:22;;;;;;;11.77;6.63;;;17.90;99.90;;;;;;5132782;28;20088;-87
2021/07/23 09:11:09;;;;;;;14.68;6.55;;;18.00;99.90;;;;;;5148993;28;20039;-86
2021/07/23 09:13:36;;;;;;;9.85;6.57;;;18.00;99.90;;;;;;5132399;28;20056;-87
2021/07/23 09:16:03;;;;;;;13.07;7.38;;;18.10;99.90;;;;;;5132198;28;20046;-86
2021/07/23 09:18:35;;;;;;;12.50;7.85;;;18.20;99.90;;;;;;5149955;28;20031;-85
2021/07/23 09:21:06;;;;;;;11.27;7.10;;;18.20;99.90;;;;;;5150598;28;20462;-85
2021/07/23 09:23:38;;;;;;;12.18;7.50;;;18.30;99.90;;;;;;5132597;28;20031;-85
2021/07/23 09:26:11;;;;;;;11.13;7.30;;;18.30;99.90;;;;;;5148817;28;20104;-86
2021/07/23 09:28:40;;;;;;;12.30;6.72;;;18.50;99.90;;;;;;5150396;28;20032;-86
2021/07/23 09:31:09;;;;;;;11.85;6.88;;;18.60;99.90;;;;;;5148458;28;20088;-85
2021/07/23 09:33:39;;;;;;;14.65;6.50;;;18.70;99.90;;;;;;5132169;28;20456;-86
2021/07/23 09:36:13;;;;;;;12.32;6.63;;;18.90;99.90;;;;;;5148900;28;20045;-86
2021/07/23 09:38:42;;;;;;;9.23;6.50;;;18.90;99.90;;;;;;5131589;28;20058;-87
2021/07/23 09:41:22;;;;;;;12.07;6.10;;;19.10;99.90;;;;;;5132458;28;20032;-85
2021/07/23 09:44:08;;;;;;;7.75;6.13;;;19.20;99.90;;;;;;5148802;28;20032;-87
2021/07/23 09:46:40;;;;;;;10.07;5.90;;;19.40;99.90;;;;;;5149537;28;20118;-83
2021/07/23 09:49:25;;;;;;;9.30;5.78;;;19.50;99.90;;;;;;5147974;28;20036;-83
2021/07/23 09:51:55;;;;;;;11.45;5.63;;;19.60;99.90;;;;;;5148323;28;20067;-83
2021/07/23 09:54:22;;;;;;;11.30;5.50;;;19.70;99.90;;;;;;5131824;28;20054;-82
2021/07/23 09:56:50;;;;;;;8.82;5.55;;;19.80;99.90;;;;;;5148429;28;20032;-83
2021/07/23 09:59:37;;;;;;;9.02;5.28;;;19.80;99.90;;;;;;5130786;28;20514;-82
2021/07/23 10:02:12;;;;;;;10.45;5.30;;;19.70;99.90;;;;;;5147909;28;20114;-82
2021/07/23 10:05:00;;;;;;;8.63;5.63;;;19.60;99.90;;;;;;5149056;28;20031;-82
2021/07/23 10:07:34;;;;;;;7.72;5.15;;;19.60;99.90;;;;;;5148382;28;20456;-82
2021/07/23 10:10:02;;;;;;;9.77;5.68;;;19.60;99.90;;;;;;5147584;28;20043;-83
2021/07/23 10:12:29;;;;;;;10.07;5.38;;;19.60;99.90;;;;;;5130344;28;20066;-82
2021/07/23 10:14:57;;;;;;;9.82;5.55;;;19.70;99.90;;;;;;5130792;28;20123;-82
2021/07/23 10:17:25;;;;;;;11.43;5.40;;;19.70;99.90;;;;;;5131395;28;20035;-83
2021/07/23 10:19:56;;;;;;;9.23;5.70;;;19.70;99.90;;;;;;5131213;28;20036;-82
2021/07/23 10:22:25;;;;;;;8.27;5.30;;;19.70;99.90;;;;;;5131817;28;20031;-82
2021/07/23 10:24:52;;;;;;;12.73;5.60;;;19.70;99.90;;;;;;5148128;28;20034;-82
2021/07/23 10:27:23;;;;;;;9.90;5.40;;;19.60;99.90;;;;;;5147715;28;20055;-82
2021/07/23 10:29:54;;;;;;;8.20;5.60;;;19.60;99.90;;;;;;5131299;28;20066;-83
2021/07/23 10:32:24;;;;;;;8.13;5.75;;;19.50;99.90;;;;;;5147373;28;20063;-82
2021/07/23 10:34:52;;;;;;;8.85;5.60;;;19.50;99.90;;;;;;5147768;28;20476;-82
2021/07/23 10:37:31;;;;;;;7.22;5.60;;;19.50;99.90;;;;;;5129580;28;20441;-82
2021/07/23 10:40:11;;;;;;;9.32;5.93;;;19.50;99.90;;;;;;5146840;28;20035;-83
2021/07/23 10:42:39;;;;;;;11.00;6.25;;;19.50;99.90;;;;;;5147517;28;20040;-82
2021/07/23 10:45:07;;;;;;;11.25;5.88;;;19.50;99.90;;;;;;5146695;28;20032;-83
2021/07/23 10:47:44;;;;;;;7.05;5.60;;;19.50;99.90;;;;;;5147643;28;20040;-82
2021/07/23 10:50:14;;;;;;;8.73;6.03;;;19.50;99.90;;;;;;5147094;28;20035;-82
2021/07/23 10:52:41;;;;;;;11.65;5.93;;;19.50;99.90;;;;;;5147375;28;20040;-83
2021/07/23 10:55:10;;;;;;;10.20;6.20;;;19.50;99.90;;;;;;5130155;28;20115;-83
2021/07/23 10:57:38;;;;;;;11.20;6.15;;;19.50;99.90;;;;;;5147523;28;20476;-83
2021/07/23 11:00:06;;;;;;;11.20;5.95;;;19.50;99.90;;;;;;5146799;28;20042;-83
2021/07/23 11:02:33;;;;;;;9.20;6.03;;;19.50;99.90;;;;;;5130331;28;20036;-82
2021/07/23 11:05:19;;;;;;;10.98;5.65;;;19.50;99.90;;;;;;5147178;28;20387;-83
2021/07/23 11:07:47;;;;;;;9.77;5.70;;;19.50;99.90;;;;;;5147568;28;20399;-82
2021/07/23 11:10:18;;;;;;;11.65;6.20;;;19.50;99.90;;;;;;5147964;28;20038;-82
2021/07/23 11:12:47;;;;;;;10.80;5.95;;;19.50;99.90;;;;;;5147045;28;20092;-82
2021/07/23 11:15:16;;;;;;;13.55;6.35;;;19.50;99.90;;;;;;5130331;28;20040;-83
2021/07/23 11:17:47;;;;;;;11.23;6.20;;;19.60;99.90;;;;;;5147001;28;20041;-83
2021/07/23 11:20:14;;;;;;;9.38;5.68;;;19.70;99.90;;;;;;5147810;28;20059;-82
2021/07/23 11:22:50;;;;;;;11.48;6.10;;;19.80;99.90;;;;;;5147165;28;20088;-82
2021/07/23 11:25:17;;;;;;;12.13;6.47;;;19.80;99.90;;;;;;5149652;28;20036;-83
2021/07/23 11:27:46;;;;;;;10.50;5.95;;;19.90;99.90;;;;;;5134145;28;20038;-82
2021/07/23 11:30:14;;;;;;;8.75;5.97;;;19.90;99.90;;;;;;5150496;28;20031;-83
2021/07/23 11:32:53;;;;;;;11.25;6.28;;;20.10;99.90;;;;;;5150742;28;20036;-82
2021/07/23 11:35:21;;;;;;;12.45;6.43;;;20.20;99.90;;;;;;5151818;28;20032;-82
2021/07/23 11:37:48;;;;;;;13.15;6.50;;;20.30;99.90;;;;;;5133584;28;20058;-82
2021/07/23 11:40:17;;;;;;;13.88;6.10;;;20.30;99.90;;;;;;5150375;28;20104;-82
2021/07/23 11:42:50;;;;;;;9.43;6.28;;;20.50;99.90;;;;;;5150669;28;20392;-82
2021/07/23 11:45:22;;;;;;;11.00;5.90;;;20.50;99.90;;;;;;5133938;28;20044;-82
2021/07/23 11:47:52;;;;;;;9.40;6.53;;;20.60;99.90;;;;;;5150349;28;20035;-82
2021/07/23 11:50:21;;;;;;;9.65;6.25;;;20.60;99.90;;;;;;5149665;28;20042;-82
2021/07/23 11:52:50;;;;;;;10.25;6.35;;;20.50;99.90;;;;;;5150307;28;20074;-82
2021/07/23 11:55:18;;;;;;;9.40;6.40;;;20.50;99.90;;;;;;5133314;28;20448;-83
2021/07/23 11:57:47;;;;;;;10.02;6.53;;;20.40;99.90;;;;;;5133376;28;20130;-83
2021/07/23 12:00:27;;;;;;;8.38;6.00;;;20.30;99.90;;;;;;5149829;28;20533;-83
2021/07/23 12:02:55;;;;;;;10.63;6.10;;;20.30;99.90;;;;;;5150521;28;20040;-82
2021/07/23 12:05:23;;;;;;;11.13;5.63;;;20.20;99.90;;;;;;5149901;28;20055;-83
2021/07/23 12:08:00;;;;;;;9.63;6.18;;;20.30;99.90;;;;;;5150260;28;20028;-82
2021/07/23 12:10:34;;;;;;;12.15;6.30;;;20.20;99.90;;;;;;5150004;28;20031;-82
2021/07/23 12:13:16;;;;;;;11.10;6.28;;;20.30;99.90;;;;;;5133882;28;20031;-81
2021/07/23 12:15:50;;;;;;;9.93;5.80;;;20.20;99.90;;;;;;5133737;28;20059;-82
2021/07/23 12:18:19;;;;;;;9.18;5.90;;;20.10;99.90;;;;;;5149724;28;20102;-82
2021/07/23 12:20:47;;;;;;;8.93;5.90;;;20.10;99.90;;;;;;5133650;28;20120;-82
2021/07/23 12:23:23;;;;;;;10.00;5.47;;;20.00;99.90;;;;;;5132726;28;20040;-83
2021/07/23 12:25:50;;;;;;;13.20;5.57;;;20.00;99.90;;;;;;5133649;28;20032;-82
2021/07/23 12:28:18;;;;;;;8.38;5.68;;;20.00;99.90;;;;;;5149435;28;20046;-82
2021/07/23 12:30:51;;;;;;;10.95;5.82;;;20.10;99.90;;;;;;5132536;28;20087;-82
2021/07/23 12:33:28;;;;;;;9.25;5.38;;;20.10;99.90;;;;;;5132573;28;20043;-82
2021/07/23 12:36:02;;;;;;;10.02;5.70;;;20.10;99.90;;;;;;5149375;28;20489;-82
2021/07/23 12:38:29;;;;;;;10.75;5.97;;;20.20;99.90;;;;;;5148984;28;20905;-82
2021/07/23 12:41:02;;;;;;;13.00;5.80;;;20.20;99.90;;;;;;5133309;28;20047;-82
2021/07/23 12:43:30;;;;;;;9.38;5.53;;;20.30;99.90;;;;;;5132970;28;20039;-82
2021/07/23 12:45:57;;;;;;;8.63;5.35;;;20.30;99.90;;;;;;5132701;28;20084;-82
2021/07/23 12:48:33;;;;;;;8.52;5.50;;;20.30;99.90;;;;;;5148932;28;20062;-82